Météo Nord-Pas-de-Calais   La météo au plus près de chez vous

Station météorologique

Observations météo à Oloron (64422)

64422007 295 m Dernier relevé à 18:42
31.4°C
Humidité 42 % Vent 6.8 km/h

Journée consultée

Samedi 5 Septembre 2026

Synthèse de la journée

Périodes de référence en UTC

Température maximale

32°C

à 18:06

06h 06h

Température minimale

15.9°C

à 05:00

18h 18h

Rafale maximale

21 km/h

à 14:24

00h 00h

Précipitations

0 mm

Cumul quotidien

06h 06h

Graphiques de la journée

Heure locale Réduire

Données détaillées

Relevés météo

Pas de 6 minutes Afficher les relevés infra-horaires
Relevés météo détaillés à Oloron pour le Samedi 5 Septembre 2026
Heure Température °C Point de rosée °C Humidité % Vent moyen (raf.), km/h Précipitations mm
18:42 31.4 °C 16.9 °C 42 % 8 km/h (15 km/h) 0 mm0 mm
18:36 31.6 °C 17.1 °C 42 % 7 km/h (15 km/h) 0 mm0 mm
18:30 31.8 °C 17.3 °C 42 % 6 km/h (14 km/h) 0 mm0 mm
18:24 31.9 °C 17.4 °C 42 % 5 km/h (13 km/h) 0 mm0 mm
18:18 31.8 °C 18 °C 44 % 5 km/h (13 km/h) 0 mm0 mm
18:12 31.9 °C 17.4 °C 42 % 7 km/h (15 km/h) 0 mm0 mm
18:06 32 °C 17.1 °C 41 % 6 km/h (15 km/h) 0 mm0 mm
18:00 31.7 °C 17.2 °C 42 % 9 km/h (17 km/h) 0 mm0 mm
17:54 31.8 °C 17.3 °C 42 % 8 km/h (17 km/h) 0 mm0 mm
17:48 31.8 °C 16.9 °C 41 % 7 km/h (18 km/h) 0 mm0 mm
17:42 31.7 °C 17.2 °C 42 % 7 km/h (18 km/h) 0 mm0 mm
17:36 31.6 °C 17.1 °C 42 % 8 km/h (19 km/h) 0 mm0 mm
17:30 31.7 °C 17.6 °C 43 % 8 km/h (18 km/h) 0 mm0 mm
17:24 31.5 °C 17 °C 42 % 7 km/h (18 km/h) 0 mm0 mm
17:18 31.8 °C 17.3 °C 42 % 8 km/h (17 km/h) 0 mm0 mm
17:12 31.6 °C 17.1 °C 42 % 9 km/h (21 km/h) 0 mm0 mm
17:06 31.7 °C 17.2 °C 42 % 8 km/h (15 km/h) 0 mm0 mm
17:00 31.7 °C 17.2 °C 42 % 8 km/h (15 km/h) 0 mm0 mm
16:54 31.4 °C 16.6 °C 41 % 9 km/h (16 km/h) 0 mm0 mm
16:48 31.6 °C 16.7 °C 41 % 8 km/h (16 km/h) 0 mm0 mm
16:42 31.5 °C 16.3 °C 40 % 6 km/h (15 km/h) 0 mm0 mm
16:36 31.5 °C 16.7 °C 41 % 7 km/h (13 km/h) 0 mm0 mm
16:30 31.6 °C 17.1 °C 42 % 9 km/h (15 km/h) 0 mm0 mm
16:24 31.4 °C 16.9 °C 42 % 8 km/h (15 km/h) 0 mm0 mm
16:18 31.5 °C 17 °C 42 % 7 km/h (14 km/h) 0 mm0 mm
16:12 31.3 °C 16.9 °C 42 % 6 km/h (14 km/h) 0 mm0 mm
16:06 31.4 °C 16.9 °C 42 % 6 km/h (19 km/h) 0 mm0 mm
16:00 30.7 °C 16.3 °C 42 % 10 km/h (21 km/h) 0 mm0 mm
15:54 31.1 °C 15.9 °C 40 % 9 km/h (19 km/h) 0 mm0 mm
15:48 31 °C 16.6 °C 42 % 9 km/h (17 km/h) 0 mm0 mm
15:42 30.8 °C 17.1 °C 44 % 10 km/h (17 km/h) 0 mm0 mm
15:36 30.9 °C 16.9 °C 43 % 9 km/h (17 km/h) 0 mm0 mm
15:30 30.6 °C 17.3 °C 45 % 10 km/h (21 km/h) 0 mm0 mm
15:24 30.5 °C 16.9 °C 44 % 10 km/h (21 km/h) 0 mm0 mm
15:18 30.2 °C 17.3 °C 46 % 7 km/h (19 km/h) 0 mm0 mm
15:12 30.2 °C 18 °C 48 % 6 km/h (15 km/h) 0 mm0 mm
15:06 29.8 °C 17.6 °C 48 % 7 km/h (18 km/h) 0 mm0 mm
15:00 29.9 °C 18.3 °C 50 % 8 km/h (18 km/h) 0 mm0 mm
14:54 29.2 °C 17.7 °C 50 % 11 km/h (18 km/h) 0 mm0 mm
14:48 29.4 °C 17.9 °C 50 % 11 km/h (19 km/h) 0 mm0 mm
14:42 29 °C 17.5 °C 50 % 10 km/h (18 km/h) 0 mm0 mm
14:36 29.1 °C 17.6 °C 50 % 10 km/h (20 km/h) 0 mm0 mm
14:30 28.9 °C 17.7 °C 51 % 11 km/h (21 km/h) 0 mm0 mm
14:24 29.1 °C 17 °C 48 % 8 km/h (21 km/h) 0 mm0 mm
14:18 29.4 °C 17.2 °C 48 % 6 km/h (16 km/h) 0 mm0 mm
14:12 29.2 °C 17.1 °C 48 % 7 km/h (14 km/h) 0 mm0 mm
14:06 29.3 °C 17.2 °C 48 % 7 km/h (14 km/h) 0 mm0 mm
14:00 28.9 °C 16.8 °C 48 % 8 km/h (17 km/h) 0 mm0 mm
13:54 28.6 °C 16.5 °C 48 % 9 km/h (17 km/h) 0 mm0 mm
13:48 28.3 °C 16.9 °C 50 % 12 km/h (20 km/h) 0 mm0 mm
13:42 28 °C 16.6 °C 50 % 12 km/h (20 km/h) 0 mm0 mm
13:36 27.7 °C 16.6 °C 51 % 9 km/h (17 km/h) 0 mm0 mm
13:30 27.8 °C 16.4 °C 50 % 9 km/h (17 km/h) 0 mm0 mm
13:24 27.8 °C 16.7 °C 51 % 9 km/h (17 km/h) 0 mm0 mm
13:18 27.7 °C 16.9 °C 52 % 7 km/h (17 km/h) 0 mm0 mm
13:12 27.7 °C 17.5 °C 54 % 6 km/h (17 km/h) 0 mm0 mm
13:06 27.3 °C 17.2 °C 54 % 8 km/h (20 km/h) 0 mm0 mm
13:00 27.5 °C 17.9 °C 56 % 8 km/h (20 km/h) 0 mm0 mm
12:54 27.2 °C 17.9 °C 57 % 8 km/h (13 km/h) 0 mm0 mm
12:48 26.9 °C 17.9 °C 58 % 8 km/h (13 km/h) 0 mm0 mm
12:42 27 °C 17.8 °C 57 % 6 km/h (13 km/h) 0 mm0 mm
12:36 26.7 °C 17.2 °C 56 % 5 km/h (13 km/h) 0 mm0 mm
12:30 26.6 °C 18.2 °C 60 % 6 km/h (15 km/h) 0 mm0 mm
12:24 26.1 °C 17.7 °C 60 % 9 km/h (15 km/h) 0 mm0 mm
12:18 25.7 °C 17.4 °C 60 % 8 km/h (14 km/h) 0 mm0 mm
12:12 25.5 °C 17.7 °C 62 % 5 km/h (11 km/h) 0 mm0 mm
12:06 25.7 °C 17.4 °C 60 % 5 km/h (10 km/h) 0 mm0 mm
12:00 25.9 °C 17.8 °C 61 % 4 km/h (11 km/h) 0 mm0 mm
11:54 25.1 °C 17 °C 61 % 5 km/h (11 km/h) 0 mm0 mm
11:48 25.1 °C 17.6 °C 63 % 6 km/h (14 km/h) 0 mm0 mm
11:42 25.2 °C 17.7 °C 63 % 6 km/h (14 km/h) 0 mm0 mm
11:36 25.1 °C 17.8 °C 64 % 5 km/h (10 km/h) 0 mm0 mm
11:30 24.6 °C 17.6 °C 65 % 4 km/h (9 km/h) 0 mm0 mm
11:24 24.4 °C 17.9 °C 67 % 4 km/h (12 km/h) 0 mm0 mm
11:18 24.3 °C 18.2 °C 69 % 4 km/h (10 km/h) 0 mm0 mm
11:12 24 °C 17.5 °C 67 % 4 km/h (10 km/h) 0 mm0 mm
11:06 24.3 °C 17.5 °C 66 % 4 km/h (11 km/h) 0 mm0 mm
11:00 24 °C 17.7 °C 68 % 4 km/h (11 km/h) 0 mm0 mm
10:54 23.7 °C 18.1 °C 71 % 3 km/h (8 km/h) 0 mm0 mm
10:48 23.1 °C 18 °C 73 % 4 km/h (9 km/h) 0 mm0 mm
10:42 23.2 °C 18.1 °C 73 % 3 km/h (8 km/h) 0 mm0 mm
10:36 23 °C 18.1 °C 74 % 3 km/h (9 km/h) 0 mm0 mm
10:30 22.5 °C 18.1 °C 76 % 5 km/h (11 km/h) 0 mm0 mm
10:24 22.8 °C 17.9 °C 74 % 5 km/h (9 km/h) 0 mm0 mm
10:18 22.4 °C 18 °C 76 % 3 km/h (8 km/h) 0 mm0 mm
10:12 22.1 °C 17.9 °C 77 % 4 km/h (8 km/h) 0 mm0 mm
10:06 21.8 °C 17.8 °C 78 % 4 km/h (8 km/h) 0 mm0 mm
10:00 21.7 °C 17.7 °C 78 % 4 km/h (8 km/h) 0 mm0 mm
09:54 21.8 °C 18 °C 79 % 3 km/h (6 km/h) 0 mm0 mm
09:48 22 °C 18.2 °C 79 % 3 km/h (6 km/h) 0 mm0 mm
09:42 21.5 °C 18.3 °C 82 % 3 km/h (6 km/h) 0 mm0 mm
09:36 20.9 °C 18.1 °C 84 % 3 km/h (6 km/h) 0 mm0 mm
09:30 20.7 °C 17.9 °C 84 % 3 km/h (6 km/h) 0 mm0 mm
09:24 20.5 °C 18.3 °C 87 % 3 km/h (5 km/h) 0 mm0 mm
09:18 20 °C 18.5 °C 91 % 2 km/h (4 km/h) 0 mm0 mm
09:12 19.5 °C 18.5 °C 94 % 0 km/h (4 km/h) 0 mm0 mm
09:06 19.2 °C 18.4 °C 95 % 0 km/h (4 km/h) 0 mm0 mm
09:00 19 °C 18.3 °C 96 % 0 km/h (3 km/h) 0 mm0 mm
08:54 18.9 °C 18.4 °C 97 % 0 km/h (3 km/h) 0 mm0 mm
08:48 18.7 °C 18.2 °C 97 % 2 km/h (5 km/h) 0 mm0 mm
08:42 18.5 °C 18 °C 97 % 2 km/h (5 km/h) 0 mm0 mm
08:36 18.3 °C 17.8 °C 97 % 3 km/h (5 km/h) 0 mm0 mm
08:30 18.2 °C 17.7 °C 97 % 2 km/h (5 km/h) 0 mm0 mm
08:24 18.1 °C 17.6 °C 97 % 2 km/h (4 km/h) 0 mm0 mm
08:18 18.1 °C 17.8 °C 98 % 3 km/h (4 km/h) 0 mm0 mm
08:12 18 °C 17.7 °C 98 % 2 km/h (4 km/h) 0 mm0 mm
08:06 17.9 °C 17.6 °C 98 % 2 km/h (3 km/h) 0 mm0 mm
08:00 17.8 °C 17.5 °C 98 % 0 km/h (3 km/h) 0 mm0 mm
07:54 17.7 °C 17.4 °C 98 % 0 km/h (2 km/h) 0 mm0 mm
07:48 17.7 °C 17.4 °C 98 % 0 km/h (0 km/h) 0 mm0 mm
07:42 17.6 °C 17.3 °C 98 % 0 km/h (2 km/h) 0 mm0 mm
07:36 17.5 °C 17.2 °C 98 % 0 km/h (3 km/h) 0 mm0 mm
07:30 17.7 °C 17.4 °C 98 % 0 km/h (4 km/h) 0 mm0 mm
07:24 17.6 °C 17.3 °C 98 % 2 km/h (4 km/h) 0 mm0 mm
07:18 17.5 °C 17.2 °C 98 % 2 km/h (6 km/h) 0 mm0 mm
07:12 17.3 °C 17 °C 98 % 3 km/h (6 km/h) 0 mm0 mm
07:06 17.3 °C 17 °C 98 % 3 km/h (6 km/h) 0 mm0 mm
07:00 17.1 °C 16.8 °C 98 % 3 km/h (4 km/h) 0 mm0 mm
06:54 17.1 °C 16.8 °C 98 % 3 km/h (4 km/h) 0 mm0 mm
06:48 17 °C 16.7 °C 98 % 2 km/h (4 km/h) 0 mm0 mm
06:42 17 °C 16.7 °C 98 % 0 km/h (3 km/h) 0 mm0 mm
06:36 16.9 °C 16.6 °C 98 % 0 km/h (3 km/h) 0 mm0 mm
06:30 16.8 °C 16.5 °C 98 % 0 km/h (3 km/h) 0 mm0 mm
06:24 16.8 °C 16.5 °C 98 % 2 km/h (4 km/h) 0 mm0 mm
06:18 16.7 °C 16.4 °C 98 % 3 km/h (4 km/h) 0 mm0 mm
06:12 16.6 °C 16.3 °C 98 % 2 km/h (3 km/h) 0 mm0 mm
06:06 16.7 °C 16.4 °C 98 % 0 km/h (3 km/h) 0 mm0 mm
06:00 16.8 °C 16.5 °C 98 % 0 km/h (3 km/h) 0 mm0 mm
05:54 16.9 °C 16.6 °C 98 % 3 km/h (5 km/h) 0 mm0 mm
05:48 17.1 °C 16.9 °C 99 % 3 km/h (5 km/h) 0 mm0 mm
05:42 16.7 °C 16.4 °C 98 % 2 km/h (5 km/h) 0 mm0 mm
05:36 16.7 °C 16.4 °C 98 % 0 km/h (3 km/h) 0 mm0 mm
05:30 16.4 °C 16.1 °C 98 % 0 km/h (3 km/h) 0 mm0 mm
05:24 16.3 °C 16 °C 98 % 0 km/h (2 km/h) 0 mm0 mm
05:18 16.2 °C 15.9 °C 98 % 0 km/h (0 km/h) 0 mm0 mm
05:12 16.1 °C 15.8 °C 98 % 0 km/h (0 km/h) 0 mm0 mm
05:06 16 °C 15.7 °C 98 % 0 km/h (2 km/h) 0 mm0 mm
05:00 15.9 °C 15.4 °C 97 % 0 km/h (3 km/h) 0 mm0 mm
04:54 16 °C 15.5 °C 97 % 0 km/h (3 km/h) 0 mm0 mm
04:48 16.2 °C 15.9 °C 98 % 0 km/h (4 km/h) 0 mm0 mm
04:42 16.4 °C 16.1 °C 98 % 0 km/h (4 km/h) 0 mm0 mm
04:36 16.4 °C 16.1 °C 98 % 0 km/h (3 km/h) 0 mm0 mm
04:30 16.4 °C 16.1 °C 98 % 0 km/h (2 km/h) 0 mm0 mm
04:24 16.6 °C 16.3 °C 98 % 0 km/h (0 km/h) 0 mm0 mm
04:18 16.5 °C 16.2 °C 98 % 0 km/h (3 km/h) 0 mm0 mm
04:12 16.5 °C 16.2 °C 98 % 3 km/h (5 km/h) 0 mm0 mm
04:06 16.4 °C 16.1 °C 98 % 4 km/h (6 km/h) 0 mm0 mm
04:00 16.3 °C 15.8 °C 97 % 3 km/h (6 km/h) 0 mm0 mm
03:54 16.6 °C 16.1 °C 97 % 2 km/h (5 km/h) 0 mm0 mm
03:48 16.8 °C 16.5 °C 98 % 0 km/h (3 km/h) 0 mm0 mm
03:42 16.7 °C 16.4 °C 98 % 2 km/h (3 km/h) 0 mm0 mm
03:36 16.7 °C 16.2 °C 97 % 0 km/h (2 km/h) 0 mm0 mm
03:30 16.8 °C 16.5 °C 98 % 0 km/h (2 km/h) 0 mm0 mm
03:24 16.8 °C 16.5 °C 98 % 0 km/h (4 km/h) 0 mm0 mm
03:18 16.9 °C 16.6 °C 98 % 2 km/h (4 km/h) 0 mm0 mm
03:12 16.8 °C 16.3 °C 97 % 0 km/h (4 km/h) 0 mm0 mm
03:06 17.1 °C 16.8 °C 98 % 0 km/h (2 km/h) 0 mm0 mm
03:00 17.1 °C 16.8 °C 98 % 0 km/h (3 km/h) 0 mm0 mm
02:54 17.1 °C 16.6 °C 97 % 0 km/h (3 km/h) 0 mm0 mm
02:48 17.1 °C 16.6 °C 97 % 2 km/h (4 km/h) 0 mm0 mm
02:42 17 °C 16.5 °C 97 % 2 km/h (4 km/h) 0 mm0 mm
02:36 17.3 °C 16.8 °C 97 % 0 km/h (4 km/h) 0 mm0 mm
02:30 17.4 °C 16.9 °C 97 % 0 km/h (3 km/h) 0 mm0 mm
02:24 17.7 °C 17.2 °C 97 % 2 km/h (4 km/h) 0 mm0 mm
02:18 17.6 °C 17.1 °C 97 % 2 km/h (4 km/h) 0 mm0 mm
02:12 17.4 °C 16.8 °C 96 % 3 km/h (6 km/h) 0 mm0 mm
02:06 17.5 °C 16.9 °C 96 % 4 km/h (6 km/h) 0 mm0 mm
02:00 17.6 °C 17 °C 96 % 3 km/h (6 km/h) 0 mm0 mm
01:54 17.8 °C 17.2 °C 96 % 0 km/h (3 km/h) 0 mm0 mm
01:48 17.9 °C 17.3 °C 96 % 2 km/h (3 km/h) 0 mm0 mm
01:42 18 °C 17.4 °C 96 % 0 km/h (3 km/h) 0 mm0 mm
01:36 18.1 °C 17.6 °C 97 % 0 km/h (3 km/h) 0 mm0 mm
01:30 18.2 °C 17.7 °C 97 % 2 km/h (5 km/h) 0 mm0 mm
01:24 18.1 °C 17.5 °C 96 % 3 km/h (5 km/h) 0 mm0 mm
01:18 18.2 °C 17.6 °C 96 % 2 km/h (5 km/h) 0 mm0 mm
01:12 18.2 °C 17.6 °C 96 % 3 km/h (5 km/h) 0 mm0 mm
01:06 18.2 °C 17.4 °C 95 % 3 km/h (5 km/h) 0 mm0 mm
01:00 18.3 °C 17.5 °C 95 % 2 km/h (4 km/h) 0 mm0 mm
00:54 18.4 °C 17.4 °C 94 % 2 km/h (3 km/h) 0 mm0 mm
00:48 18.5 °C 17.3 °C 93 % 3 km/h (4 km/h) 0 mm0 mm
00:42 18.8 °C 17.8 °C 94 % 2 km/h (4 km/h) 0 mm0 mm
00:36 18.9 °C 17.9 °C 94 % 0 km/h (3 km/h) 0 mm0 mm
00:30 19 °C 17.8 °C 93 % 0 km/h (2 km/h) 0 mm0 mm
00:24 19.1 °C 17.9 °C 93 % 0 km/h (3 km/h) 0 mm0 mm
00:18 19.3 °C 18.1 °C 93 % 0 km/h (4 km/h) 0 mm0 mm
00:12 19.4 °C 18.1 °C 92 % 2 km/h (5 km/h) 0 mm0 mm
00:06 19.5 °C 18.2 °C 92 % 3 km/h (6 km/h) 0 mm0 mm
00:00 19.8 °C 18.5 °C 92 % 4 km/h (6 km/h) 0 mm0 mm

Données via Météo-France

Relevés météo à Oloron

Cette page rassemble les observations de la station de Oloron : température, humidité, vent, précipitations et pression atmosphérique. Les graphiques facilitent le suivi de la journée, tandis que le tableau donne accès aux mesures horaires et infra-horaires disponibles.

Pour replacer ces mesures dans leur contexte, consultez la climatologie de Oloron ainsi que ses normales et records. Retrouvez aussi la carte des observations météo en temps réel.